createdAt,value
2022-12-05T00:01:44.971Z,97373.56
2022-12-05T00:04:14.731Z,97377.44
2022-12-05T00:06:44.338Z,97382.22
2022-12-05T00:09:13.959Z,97383.72
2022-12-05T00:11:45.000Z,97379.41
2022-12-05T00:14:13.861Z,97378.16
2022-12-05T00:16:43.750Z,97376.34
2022-12-05T00:19:15.262Z,97372.56
2022-12-05T00:21:44.064Z,97372.69
2022-12-05T00:24:15.262Z,97379.38
2022-12-05T00:26:43.739Z,97388.16
2022-12-05T00:29:12.111Z,97384.81
2022-12-05T00:31:40.053Z,97383.16
2022-12-05T00:34:08.078Z,97379.38
2022-12-05T00:36:36.624Z,97372.41
2022-12-05T00:39:09.293Z,97377.56
2022-12-05T00:41:38.268Z,97385.50
2022-12-05T00:44:06.703Z,97381.88
2022-12-05T00:46:36.049Z,97393.59
2022-12-05T00:49:06.905Z,97395.69
2022-12-05T00:51:41.718Z,97388.91
2022-12-05T00:54:13.378Z,97394.59
2022-12-05T00:56:42.116Z,97400.72
2022-12-05T00:59:18.152Z,97394.59
2022-12-05T01:01:48.325Z,97398.59
2022-12-05T01:04:23.442Z,97402.94
2022-12-05T01:06:55.983Z,97403.75
2022-12-05T01:09:24.064Z,97404.06
2022-12-05T01:11:53.001Z,97407.53
2022-12-05T01:14:23.943Z,97409.06
2022-12-05T01:16:54.602Z,97415.03
2022-12-05T01:19:26.890Z,97417.53
2022-12-05T01:21:55.732Z,97415.91
2022-12-05T01:24:25.909Z,97415.72
2022-12-05T01:26:54.209Z,97424.53
2022-12-05T01:29:24.588Z,97428.28
2022-12-05T01:31:53.360Z,97440.81
2022-12-05T01:34:22.334Z,97443.31
2022-12-05T01:36:50.198Z,97446.97
2022-12-05T01:39:18.256Z,97438.16
2022-12-05T01:41:49.238Z,97431.59
2022-12-05T01:44:17.672Z,97439.53
2022-12-05T01:46:48.896Z,97436.06
2022-12-05T01:49:36.520Z,97427.16
2022-12-05T01:52:26.722Z,97430.78
2022-12-05T01:55:00.122Z,97434.81
2022-12-05T01:57:28.444Z,97432.03
2022-12-05T02:00:05.279Z,97435.78
2022-12-05T02:02:43.368Z,97441.09
2022-12-05T02:05:23.884Z,97437.88
2022-12-05T02:07:52.827Z,97456.13
2022-12-05T02:10:21.248Z,97455.41
2022-12-05T02:12:51.475Z,97461.03
2022-12-05T02:16:00.518Z,97452.38
2022-12-05T02:19:06.125Z,97457.53
2022-12-05T02:21:41.172Z,97456.69
2022-12-05T02:24:20.718Z,97461.97
2022-12-05T02:27:15.688Z,97469.91
2022-12-05T02:30:09.991Z,97468.41
2022-12-05T02:33:19.503Z,97470.91
2022-12-05T02:36:15.910Z,97467.41
2022-12-05T02:39:24.670Z,97481.06
2022-12-05T02:42:01.193Z,97481.63
2022-12-05T02:44:47.665Z,97493.88
2022-12-05T02:47:22.373Z,97507.66
2022-12-05T02:49:52.961Z,97509.63
2022-12-05T02:52:22.943Z,97504.19
2022-12-05T02:54:53.565Z,97503.06
2022-12-05T02:57:24.704Z,97489.00
2022-12-05T02:59:52.611Z,97486.09
2022-12-05T03:02:34.061Z,97500.69
2022-12-05T03:05:54.077Z,97507.25
2022-12-05T03:08:29.618Z,97513.34
2022-12-05T03:10:59.274Z,97520.16
2022-12-05T03:13:35.093Z,97518.53
2022-12-05T03:16:29.513Z,97504.59
2022-12-05T03:19:03.224Z,97510.56
2022-12-05T03:21:35.977Z,97500.13
2022-12-05T03:24:11.625Z,97487.56
2022-12-05T03:26:48.130Z,97481.84
2022-12-05T03:29:30.356Z,97482.41
2022-12-05T03:32:28.554Z,97467.50
2022-12-05T03:35:23.378Z,97466.38
2022-12-05T03:38:03.388Z,97488.09
2022-12-05T03:40:46.548Z,97491.88
2022-12-05T03:43:36.780Z,97492.84
2022-12-05T03:46:31.578Z,97495.22
2022-12-05T03:49:26.029Z,97492.72
2022-12-05T03:52:20.341Z,97493.13
2022-12-05T03:55:09.009Z,97495.78
2022-12-05T03:58:15.061Z,97495.34
2022-12-05T04:00:50.303Z,97496.06
2022-12-05T04:03:26.641Z,97503.72
2022-12-05T04:06:01.620Z,97498.25
2022-12-05T04:08:47.039Z,97502.28
2022-12-05T04:11:23.390Z,97507.03
2022-12-05T04:13:56.662Z,97501.56
2022-12-05T04:16:50.334Z,97498.50
2022-12-05T04:20:37.858Z,97498.78
2022-12-05T04:23:07.065Z,97504.50
2022-12-05T04:26:04.876Z,97501.97
2022-12-05T04:28:36.600Z,97504.50
2022-12-05T04:31:26.146Z,97514.25
2022-12-05T04:34:07.817Z,97522.47
2022-12-05T04:36:47.049Z,97523.16
2022-12-05T04:39:35.261Z,97527.78
2022-12-05T04:42:09.627Z,97522.19
2022-12-05T04:44:44.951Z,97536.28
2022-12-05T04:47:15.044Z,97533.06
2022-12-05T04:49:46.961Z,97527.91
2022-12-05T04:52:19.133Z,97533.75
2022-12-05T04:54:52.571Z,97526.09
2022-12-05T04:57:45.092Z,97528.59
2022-12-05T05:00:13.435Z,97535.28
2022-12-05T05:02:51.665Z,97525.69
2022-12-05T05:05:20.846Z,97519.94
2022-12-05T05:07:54.509Z,97516.88
2022-12-05T05:10:55.051Z,97520.63
2022-12-05T05:13:22.895Z,97526.19
2022-12-05T05:15:50.707Z,97535.09
2022-12-05T05:18:18.588Z,97555.34
2022-12-05T05:20:46.443Z,97546.53
2022-12-05T05:23:14.594Z,97546.41
2022-12-05T05:25:42.341Z,97550.41
2022-12-05T05:28:10.109Z,97548.47
2022-12-05T05:30:37.904Z,97545.97
2022-12-05T05:33:05.660Z,97547.09
2022-12-05T05:35:37.477Z,97545.44
2022-12-05T05:38:05.313Z,97553.38
2022-12-05T05:40:37.215Z,97552.56
2022-12-05T05:43:05.366Z,97557.00
2022-12-05T05:45:33.226Z,97565.63
2022-12-05T05:48:00.922Z,97569.28
2022-12-05T05:50:29.244Z,97567.16
2022-12-05T05:52:56.983Z,97566.19
2022-12-05T05:55:24.751Z,97563.38
2022-12-05T05:57:52.476Z,97568.56
2022-12-05T06:00:20.505Z,97571.19
2022-12-05T06:02:48.346Z,97581.78
2022-12-05T06:05:16.270Z,97581.78
2022-12-05T06:07:44.093Z,97582.75
2022-12-05T06:10:11.932Z,97581.66
2022-12-05T06:12:39.683Z,97579.84
2022-12-05T06:15:08.500Z,97580.66
2022-12-05T06:17:36.350Z,97583.31
2022-12-05T06:20:06.743Z,97573.25
2022-12-05T06:22:34.589Z,97565.59
2022-12-05T06:25:02.307Z,97571.75
2022-12-05T06:27:31.759Z,97578.72
2022-12-05T06:30:00.155Z,97588.34
2022-12-05T06:32:30.095Z,97585.00
2022-12-05T06:34:57.913Z,97574.41
2022-12-05T06:37:25.665Z,97580.38
2022-12-05T06:39:53.469Z,97588.03
2022-12-05T06:42:22.328Z,97603.78
2022-12-05T06:44:50.226Z,97611.88
2022-12-05T06:47:17.925Z,97617.19
2022-12-05T06:49:45.796Z,97620.81
2022-12-05T06:52:13.586Z,97629.59
2022-12-05T06:54:41.347Z,97632.25
2022-12-05T06:57:09.803Z,97626.25
2022-12-05T06:59:37.566Z,97630.44
2022-12-05T07:02:08.392Z,97627.91
2022-12-05T07:04:36.303Z,97633.38
2022-12-05T07:07:04.382Z,97631.56
2022-12-05T07:09:51.351Z,97629.59
2022-12-05T07:12:19.786Z,97639.38
2022-12-05T07:14:49.371Z,97640.19
2022-12-05T07:17:19.454Z,97641.88
2022-12-05T07:19:52.976Z,97632.81
2022-12-05T07:22:23.556Z,97634.31
2022-12-05T07:24:54.274Z,97625.09
2022-12-05T07:27:27.233Z,97623.31
2022-12-05T07:29:56.996Z,97633.59
2022-12-05T07:32:25.059Z,97640.03
2022-12-05T07:34:55.508Z,97646.16
2022-12-05T07:37:24.045Z,97648.81
2022-12-05T07:39:53.511Z,97653.16
2022-12-05T07:42:21.341Z,97652.47
2022-12-05T07:44:49.128Z,97664.03
2022-12-05T07:47:17.127Z,97660.41
2022-12-05T07:49:44.955Z,97667.50
2022-12-05T07:52:12.902Z,97663.06
2022-12-05T07:54:40.718Z,97659.41
2022-12-05T07:57:08.440Z,97659.16
2022-12-05T07:59:36.184Z,97658.97
2022-12-05T08:02:04.099Z,97660.53
2022-12-05T08:04:31.905Z,97658.56
2022-12-05T08:06:59.642Z,97658.44
2022-12-05T08:09:27.701Z,97663.41
2022-12-05T08:11:55.421Z,97677.50
2022-12-05T08:14:23.178Z,97676.69
2022-12-05T08:16:50.988Z,97681.84
2022-12-05T08:19:19.143Z,97675.72
2022-12-05T08:21:47.676Z,97677.22
2022-12-05T08:24:15.427Z,97683.91
2022-12-05T08:26:43.250Z,97676.97
2022-12-05T08:29:14.945Z,97665.66
2022-12-05T08:31:47.441Z,97667.44
2022-12-05T08:34:17.653Z,97684.75
2022-12-05T08:36:46.400Z,97690.59
2022-12-05T08:39:17.508Z,97700.78
2022-12-05T08:41:47.524Z,97705.78
2022-12-05T08:44:17.117Z,97710.13
2022-12-05T08:46:48.639Z,97706.47
2022-12-05T08:49:17.749Z,97713.59
2022-12-05T08:51:45.790Z,97716.25
2022-12-05T08:54:13.836Z,97721.41
2022-12-05T08:56:41.618Z,97723.06
2022-12-05T08:59:09.426Z,97732.44
2022-12-05T09:01:39.334Z,97728.66
2022-12-05T09:04:08.263Z,97737.31
2022-12-05T09:06:36.675Z,97739.81
2022-12-05T09:09:08.568Z,97731.69
2022-12-05T09:11:41.486Z,97735.22
2022-12-05T09:14:09.266Z,97733.81
2022-12-05T09:16:39.411Z,97730.50
2022-12-05T09:19:23.575Z,97730.09
2022-12-05T09:21:51.367Z,97735.53
2022-12-05T09:24:19.930Z,97752.16
2022-12-05T09:26:47.784Z,97748.41
2022-12-05T09:29:17.543Z,97749.28
2022-12-05T09:31:51.570Z,97759.16
2022-12-05T09:34:20.224Z,97763.22
2022-12-05T09:36:55.850Z,97764.31
2022-12-05T09:39:26.341Z,97769.06
2022-12-05T09:42:05.983Z,97762.50
2022-12-05T09:45:03.944Z,97761.94
2022-12-05T09:47:49.925Z,97761.78
2022-12-05T09:50:33.716Z,97768.03
2022-12-05T09:53:33.013Z,97766.34
2022-12-05T09:56:09.796Z,97769.25
2022-12-05T09:58:52.410Z,97766.03
2022-12-05T10:01:40.736Z,97761.97
2022-12-05T10:04:48.439Z,97765.19
2022-12-05T10:07:44.007Z,97767.97
2022-12-05T10:10:26.747Z,97771.19
2022-12-05T10:13:20.553Z,97765.19
2022-12-05T10:15:57.625Z,97774.25
2022-12-05T10:18:46.642Z,97773.69
2022-12-05T10:21:53.662Z,97774.38
2022-12-05T10:24:37.366Z,97775.91
2022-12-05T10:27:10.850Z,97775.47
2022-12-05T10:29:53.902Z,97775.31
2022-12-05T10:32:36.764Z,97776.03
2022-12-05T10:35:21.410Z,97766.94
2022-12-05T10:38:00.706Z,97761.47
2022-12-05T10:40:37.588Z,97767.34
2022-12-05T10:43:08.285Z,97764.56
2022-12-05T10:45:48.121Z,97755.63
2022-12-05T10:48:19.591Z,97755.47
2022-12-05T10:50:55.695Z,97755.63
2022-12-05T10:53:49.438Z,97754.63
2022-12-05T10:56:45.577Z,97749.03
2022-12-05T10:59:26.081Z,97746.66
2022-12-05T11:01:58.098Z,97743.59
2022-12-05T11:04:45.320Z,97749.63
2022-12-05T11:07:36.554Z,97751.41
2022-12-05T11:10:44.189Z,97744.00
2022-12-05T11:13:25.657Z,97735.03
2022-12-05T11:15:55.642Z,97740.63
2022-12-05T11:18:31.612Z,97741.03
2022-12-05T11:21:14.681Z,97738.91
2022-12-05T11:23:42.482Z,97739.69
2022-12-05T11:26:37.375Z,97746.22
2022-12-05T11:29:25.208Z,97745.69
2022-12-05T11:31:53.089Z,97752.50
2022-12-05T11:34:27.188Z,97746.44
2022-12-05T11:37:07.712Z,97738.66
2022-12-05T11:39:35.669Z,97724.94
2022-12-05T11:43:00.448Z,97721.28
2022-12-05T11:45:52.163Z,97718.16
2022-12-05T11:48:34.761Z,97718.69
2022-12-05T11:51:39.741Z,97730.47
2022-12-05T11:54:13.294Z,97728.03
2022-12-05T11:57:12.910Z,97734.06
2022-12-05T12:00:26.871Z,97734.19
2022-12-05T12:03:33.140Z,97736.38
2022-12-05T12:06:25.266Z,97737.75
2022-12-05T12:09:17.703Z,97729.16
2022-12-05T12:12:42.677Z,97725.81
2022-12-05T12:15:40.702Z,97734.84
2022-12-05T12:18:08.323Z,97728.56
2022-12-05T12:21:03.903Z,97730.53
2022-12-05T12:24:14.823Z,97721.03
2022-12-05T12:27:08.841Z,97726.97
2022-12-05T12:30:15.123Z,97723.38
2022-12-05T12:33:27.135Z,97722.72
2022-12-05T12:36:10.430Z,97723.00
2022-12-05T12:39:26.169Z,97729.19
2022-12-05T12:42:13.177Z,97726.66
2022-12-05T12:44:46.183Z,97729.03
2022-12-05T12:47:29.971Z,97730.47
2022-12-05T12:50:20.620Z,97727.59
2022-12-05T12:53:32.393Z,97726.69
2022-12-05T12:56:36.862Z,97722.72
2022-12-05T12:59:33.797Z,97717.56
2022-12-05T13:02:18.194Z,97720.38
2022-12-05T13:05:04.697Z,97721.28
2022-12-05T13:07:56.994Z,97724.06
2022-12-05T13:10:41.078Z,97718.69
2022-12-05T13:13:22.360Z,97722.72
2022-12-05T13:16:00.955Z,97720.75
2022-12-05T13:18:28.826Z,97723.47
2022-12-05T13:21:03.759Z,97727.78
2022-12-05T13:23:34.850Z,97720.28
2022-12-05T13:26:10.746Z,97728.66
2022-12-05T13:28:49.838Z,97722.59
2022-12-05T13:31:19.439Z,97722.84
2022-12-05T13:33:50.527Z,97719.19
2022-12-05T13:36:39.552Z,97728.31
2022-12-05T13:39:32.880Z,97721.72
2022-12-05T13:42:16.271Z,97726.34
2022-12-05T13:45:10.160Z,97726.13
2022-12-05T13:48:01.657Z,97724.66
2022-12-05T13:50:54.199Z,97726.53
2022-12-05T13:53:47.453Z,97731.22
2022-12-05T13:56:15.117Z,97738.59
2022-12-05T13:58:53.097Z,97738.22
2022-12-05T14:01:27.046Z,97742.41
2022-12-05T14:04:02.292Z,97740.47
2022-12-05T14:06:38.606Z,97755.16
2022-12-05T14:09:28.226Z,97749.03
2022-12-05T14:12:12.193Z,97744.66
2022-12-05T14:15:04.044Z,97756.91
2022-12-05T14:17:41.724Z,97743.03
2022-12-05T14:20:24.788Z,97753.34
2022-12-05T14:23:18.520Z,97753.09
2022-12-05T14:26:07.034Z,97756.16
2022-12-05T14:28:45.000Z,97748.59
2022-12-05T14:31:47.468Z,97755.69
2022-12-05T14:34:24.771Z,97762.91
2022-12-05T14:37:15.054Z,97761.81
2022-12-05T14:39:58.174Z,97763.31
2022-12-05T14:42:44.194Z,97764.16
2022-12-05T14:45:30.658Z,97765.69
2022-12-05T14:48:27.261Z,97774.09
2022-12-05T14:50:57.562Z,97770.59
2022-12-05T14:53:37.402Z,97772.44
2022-12-05T14:56:19.635Z,97768.91
2022-12-05T14:59:05.042Z,97772.25
2022-12-05T15:01:49.906Z,97762.31
2022-12-05T15:04:28.756Z,97768.50
2022-12-05T15:07:09.689Z,97774.63
2022-12-05T15:09:41.400Z,97769.03
2022-12-05T15:12:20.284Z,97766.19
2022-12-05T15:15:19.945Z,97764.84
2022-12-05T15:18:16.328Z,97777.00
2022-12-05T15:20:59.089Z,97772.81
2022-12-05T15:23:54.901Z,97773.25
2022-12-05T15:26:47.767Z,97765.84
2022-12-05T15:29:20.732Z,97773.66
2022-12-05T15:31:52.542Z,97775.47
2022-12-05T15:34:44.789Z,97779.81
2022-12-05T15:37:17.550Z,97778.25
2022-12-05T15:39:57.159Z,97783.06
2022-12-05T15:42:30.466Z,97780.69
2022-12-05T15:45:15.331Z,97782.50
2022-12-05T15:47:54.157Z,97791.38
2022-12-05T15:50:38.743Z,97790.00
2022-12-05T15:53:18.554Z,97790.00
2022-12-05T15:55:53.629Z,97792.66
2022-12-05T15:58:42.649Z,97788.16
2022-12-05T16:01:19.478Z,97790.28
2022-12-05T16:04:18.681Z,97788.53
2022-12-05T16:06:54.986Z,97792.84
2022-12-05T16:09:27.726Z,97788.66
2022-12-05T16:12:03.322Z,97797.91
2022-12-05T16:14:59.112Z,97796.09
2022-12-05T16:17:24.139Z,97801.53
2022-12-05T16:19:52.013Z,97803.94
2022-12-05T16:22:25.369Z,97802.94
2022-12-05T16:25:15.378Z,97808.13
2022-12-05T16:27:44.166Z,97807.66
2022-12-05T16:30:22.887Z,97809.34
2022-12-05T16:33:15.529Z,97814.66
2022-12-05T16:35:45.960Z,97823.03
2022-12-05T16:38:31.885Z,97819.53
2022-12-05T16:41:03.021Z,97820.06
2022-12-05T16:43:33.739Z,97824.41
2022-12-05T16:46:13.670Z,97817.28
2022-12-05T16:48:44.726Z,97817.00
2022-12-05T16:51:28.748Z,97817.00
2022-12-05T16:53:56.935Z,97817.00
2022-12-05T16:56:32.790Z,97822.31
2022-12-05T16:59:11.617Z,97826.06
2022-12-05T17:01:39.541Z,97834.03
2022-12-05T17:04:11.459Z,97834.19
2022-12-05T17:06:39.434Z,97838.66
2022-12-05T17:09:07.268Z,97831.53
2022-12-05T17:11:37.213Z,97834.19
2022-12-05T17:14:05.263Z,97833.22
2022-12-05T17:16:33.149Z,97828.03
2022-12-05T17:19:00.966Z,97828.03
2022-12-05T17:21:32.376Z,97835.59
2022-12-05T17:24:01.182Z,97830.28
2022-12-05T17:26:28.993Z,97837.38
2022-12-05T17:28:56.989Z,97828.72
2022-12-05T17:31:26.128Z,97831.38
2022-12-05T17:33:54.713Z,97827.91
2022-12-05T17:36:22.740Z,97834.88
2022-12-05T17:38:50.562Z,97834.88
2022-12-05T17:41:22.928Z,97834.19
2022-12-05T17:43:51.521Z,97831.53
2022-12-05T17:46:23.876Z,97837.53
2022-12-05T17:48:52.600Z,97833.22
2022-12-05T17:51:21.364Z,97829.56
2022-12-05T17:53:49.585Z,97824.69
2022-12-05T17:56:17.382Z,97824.97
2022-12-05T17:58:46.206Z,97833.81
2022-12-05T18:01:20.102Z,97824.28
2022-12-05T18:03:48.558Z,97827.81
2022-12-05T18:06:17.562Z,97822.50
2022-12-05T18:08:45.740Z,97829.78
2022-12-05T18:11:14.744Z,97827.25
2022-12-05T18:13:42.896Z,97828.91
2022-12-05T18:16:10.826Z,97827.53
2022-12-05T18:18:39.502Z,97827.97
2022-12-05T18:21:12.636Z,97835.66
2022-12-05T18:23:41.110Z,97815.69
2022-12-05T18:26:10.691Z,97816.41
2022-12-05T18:28:39.674Z,97819.78
2022-12-05T18:31:16.658Z,97825.09
2022-12-05T18:33:46.084Z,97818.56
2022-12-05T18:36:19.501Z,97827.09
2022-12-05T18:38:55.821Z,97831.69
2022-12-05T18:41:26.637Z,97835.59
2022-12-05T18:43:54.748Z,97829.75
2022-12-05T18:46:22.867Z,97830.44
2022-12-05T18:48:50.743Z,97835.63
2022-12-05T18:51:23.306Z,97833.78
2022-12-05T18:53:53.624Z,97834.78
2022-12-05T18:56:40.313Z,97834.22
2022-12-05T18:59:15.101Z,97844.41
2022-12-05T19:01:43.919Z,97842.59
2022-12-05T19:04:14.697Z,97838.81
2022-12-05T19:06:48.252Z,97841.19
2022-12-05T19:09:18.816Z,97848.88
2022-12-05T19:11:50.932Z,97844.94
2022-12-05T19:14:19.460Z,97844.81
2022-12-05T19:16:56.491Z,97855.97
2022-12-05T19:19:28.332Z,97846.75
2022-12-05T19:21:56.773Z,97841.47
2022-12-05T19:24:24.650Z,97845.78
2022-12-05T19:26:52.472Z,97845.63
2022-12-05T19:29:20.224Z,97846.50
2022-12-05T19:31:48.120Z,97841.72
2022-12-05T19:34:15.927Z,97849.84
2022-12-05T19:36:45.955Z,97843.84
2022-12-05T19:39:27.464Z,97848.84
2022-12-05T19:41:57.938Z,97851.38
2022-12-05T19:44:26.649Z,97850.38
2022-12-05T19:46:55.093Z,97846.88
2022-12-05T19:49:23.206Z,97853.31
2022-12-05T19:51:50.985Z,97847.88
2022-12-05T19:54:19.549Z,97851.91
2022-12-05T19:56:47.326Z,97849.28
2022-12-05T19:59:18.511Z,97848.41
2022-12-05T20:01:46.380Z,97855.53
2022-12-05T20:04:16.926Z,97848.28
2022-12-05T20:06:48.488Z,97852.47
2022-12-05T20:09:20.072Z,97850.34
2022-12-05T20:11:55.567Z,97853.75
2022-12-05T20:14:25.518Z,97855.66
2022-12-05T20:16:54.330Z,97851.34
2022-12-05T20:19:23.979Z,97844.66
2022-12-05T20:21:51.785Z,97845.34
2022-12-05T20:24:19.594Z,97841.44
2022-12-05T20:26:47.378Z,97839.75
2022-12-05T20:29:15.115Z,97849.53
2022-12-05T20:31:43.691Z,97845.75
2022-12-05T20:34:15.124Z,97844.94
2022-12-05T20:36:43.402Z,97848.28
2022-12-05T20:39:15.188Z,97842.97
2022-12-05T20:41:43.893Z,97847.31
2022-12-05T20:44:15.553Z,97852.63
2022-12-05T20:46:43.671Z,97851.63
2022-12-05T20:49:14.924Z,97851.47
2022-12-05T20:51:45.700Z,97852.03
2022-12-05T20:54:18.193Z,97856.25
2022-12-05T20:56:46.151Z,97851.81
2022-12-05T20:59:14.471Z,97855.53
2022-12-05T21:01:42.646Z,97852.03
2022-12-05T21:04:12.375Z,97851.22
2022-12-05T21:06:42.943Z,97848.81
2022-12-05T21:09:16.156Z,97842.97
2022-12-05T21:11:44.428Z,97843.97
2022-12-05T21:14:12.578Z,97845.06
2022-12-05T21:16:40.888Z,97842.03
2022-12-05T21:19:08.871Z,97833.78
2022-12-05T21:21:37.334Z,97833.66
2022-12-05T21:24:06.293Z,97834.47
2022-12-05T21:26:35.622Z,97838.41
2022-12-05T21:29:06.654Z,97839.22
2022-12-05T21:31:38.519Z,97837.56
2022-12-05T21:34:20.472Z,97846.78
2022-12-05T21:36:49.059Z,97836.19
2022-12-05T21:39:16.949Z,97844.97
2022-12-05T21:41:44.754Z,97841.19
2022-12-05T21:44:14.834Z,97837.56
2022-12-05T21:46:42.749Z,97841.75
2022-12-05T21:49:11.415Z,97830.19
2022-12-05T21:51:39.175Z,97830.03
2022-12-05T21:54:07.351Z,97832.69
2022-12-05T21:56:35.177Z,97837.13
2022-12-05T21:59:02.874Z,97829.34
2022-12-05T22:01:30.698Z,97839.09
2022-12-05T22:03:59.640Z,97839.94
2022-12-05T22:06:30.970Z,97840.91
2022-12-05T22:08:58.743Z,97835.88
2022-12-05T22:11:26.775Z,97839.53
2022-12-05T22:13:54.667Z,97841.19
2022-12-05T22:16:25.456Z,97845.66
2022-12-05T22:18:56.914Z,97847.47
2022-12-05T22:21:24.715Z,97845.09
2022-12-05T22:23:52.466Z,97844.53
2022-12-05T22:26:23.711Z,97846.91
2022-12-05T22:28:56.226Z,97840.66
2022-12-05T22:31:24.769Z,97836.88
2022-12-05T22:33:52.646Z,97845.94
2022-12-05T22:36:20.584Z,97837.69
2022-12-05T22:38:48.944Z,97836.56
2022-12-05T22:41:21.403Z,97839.22
2022-12-05T22:43:53.901Z,97842.88
2022-12-05T22:46:22.374Z,97844.25
2022-12-05T22:48:50.624Z,97833.41
2022-12-05T22:51:21.142Z,97838.41
2022-12-05T22:53:54.196Z,97839.09
2022-12-05T22:56:24.949Z,97839.78
2022-12-05T22:58:58.215Z,97831.00
2022-12-05T23:01:29.083Z,97827.22
2022-12-05T23:04:06.616Z,97838.00
2022-12-05T23:06:36.663Z,97827.78
2022-12-05T23:09:08.702Z,97823.31
2022-12-05T23:11:36.817Z,97829.34
2022-12-05T23:14:06.015Z,97827.41
2022-12-05T23:16:34.756Z,97823.63
2022-12-05T23:19:05.341Z,97834.91
2022-12-05T23:21:37.459Z,97831.31
2022-12-05T23:24:09.742Z,97828.66
2022-12-05T23:26:42.824Z,97833.22
2022-12-05T23:29:12.701Z,97819.13
2022-12-05T23:31:41.492Z,97819.44
2022-12-05T23:34:10.734Z,97815.22
2022-12-05T23:36:38.710Z,97821.53
2022-12-05T23:39:06.967Z,97814.84
2022-12-05T23:41:34.785Z,97813.00
2022-12-05T23:44:03.527Z,97807.72
2022-12-05T23:46:31.484Z,97809.38
2022-12-05T23:48:59.513Z,97802.41
2022-12-05T23:51:29.993Z,97803.53
2022-12-05T23:54:01.637Z,97798.38
2022-12-05T23:56:33.346Z,97806.59
2022-12-05T23:59:04.665Z,97797.25
